createdAt,value
2022-12-11T00:00:00.780Z,3.08
2022-12-11T00:02:30.198Z,1.92
2022-12-11T00:04:57.626Z,2.95
2022-12-11T00:07:25.240Z,2.67
2022-12-11T00:09:52.882Z,2.55
2022-12-11T00:12:20.431Z,2.15
2022-12-11T00:14:48.057Z,2.30
2022-12-11T00:17:15.592Z,2.53
2022-12-11T00:19:43.684Z,2.67
2022-12-11T00:22:11.435Z,3.75
2022-12-11T00:24:39.151Z,2.35
2022-12-11T00:27:06.851Z,3.80
2022-12-11T00:29:34.565Z,3.15
2022-12-11T00:32:02.369Z,3.15
2022-12-11T00:34:30.184Z,2.40
2022-12-11T00:36:59.254Z,1.73
2022-12-11T00:39:26.937Z,1.58
2022-12-11T00:41:54.633Z,1.92
2022-12-11T00:44:22.203Z,3.03
2022-12-11T00:46:50.051Z,2.67
2022-12-11T00:49:17.526Z,1.90
2022-12-11T00:51:45.437Z,1.95
2022-12-11T00:54:13.037Z,2.97
2022-12-11T00:56:40.753Z,3.63
2022-12-11T00:59:08.602Z,2.05
2022-12-11T01:01:36.807Z,2.75
2022-12-11T01:04:04.444Z,3.38
2022-12-11T01:06:32.114Z,4.10
2022-12-11T01:09:18.408Z,3.50
2022-12-11T01:11:46.024Z,3.60
2022-12-11T01:14:14.705Z,2.88
2022-12-11T01:16:42.340Z,2.88
2022-12-11T01:19:09.876Z,3.22
2022-12-11T01:21:37.563Z,2.55
2022-12-11T01:24:05.335Z,2.33
2022-12-11T01:26:33.296Z,1.52
2022-12-11T01:29:01.518Z,2.53
2022-12-11T01:31:29.228Z,2.88
2022-12-11T01:33:57.052Z,2.70
2022-12-11T01:36:25.403Z,3.38
2022-12-11T01:38:54.496Z,2.35
2022-12-11T01:41:22.387Z,3.15
2022-12-11T01:44:04.738Z,2.00
2022-12-11T01:46:35.169Z,3.28
2022-12-11T01:49:04.656Z,1.48
2022-12-11T01:51:35.407Z,3.55
2022-12-11T01:54:08.387Z,2.60
2022-12-11T01:56:36.666Z,1.50
2022-12-11T01:59:07.471Z,2.35
2022-12-11T02:01:42.500Z,2.15
2022-12-11T02:04:11.112Z,2.72
2022-12-11T02:06:42.929Z,3.15
2022-12-11T02:09:17.528Z,3.50
2022-12-11T02:12:00.626Z,2.00
2022-12-11T02:14:28.198Z,4.13
2022-12-11T02:17:39.175Z,2.97
2022-12-11T02:20:09.532Z,3.42
2022-12-11T02:22:37.185Z,2.53
2022-12-11T02:25:11.850Z,3.17
2022-12-11T02:27:57.402Z,4.05
2022-12-11T02:30:25.291Z,3.50
2022-12-11T02:32:59.525Z,1.80
2022-12-11T02:35:32.406Z,2.47
2022-12-11T02:38:02.905Z,2.00
2022-12-11T02:40:35.564Z,2.67
2022-12-11T02:43:07.059Z,2.40
2022-12-11T02:45:36.130Z,1.20
2022-12-11T02:48:04.797Z,2.00
2022-12-11T02:50:32.973Z,3.35
2022-12-11T02:53:04.381Z,3.75
2022-12-11T02:55:33.645Z,2.85
2022-12-11T02:58:13.361Z,3.00
2022-12-11T03:00:41.848Z,3.45
2022-12-11T03:03:12.667Z,4.40
2022-12-11T03:05:40.622Z,3.72
2022-12-11T03:08:08.600Z,1.13
2022-12-11T03:10:36.266Z,3.05
2022-12-11T03:13:04.157Z,3.40
2022-12-11T03:15:59.348Z,2.20
2022-12-11T03:18:44.012Z,3.85
2022-12-11T03:21:27.305Z,2.33
2022-12-11T03:24:05.403Z,2.67
2022-12-11T03:26:42.145Z,2.45
2022-12-11T03:29:26.273Z,3.00
2022-12-11T03:32:05.530Z,1.70
2022-12-11T03:34:45.963Z,3.17
2022-12-11T03:37:15.255Z,2.47
2022-12-11T03:39:52.595Z,2.83
2022-12-11T03:42:22.061Z,2.30
2022-12-11T03:44:55.736Z,3.53
2022-12-11T03:47:26.420Z,3.50
2022-12-11T03:49:54.759Z,3.92
2022-12-11T03:52:23.028Z,2.05
2022-12-11T03:54:51.601Z,3.15
2022-12-11T03:57:22.853Z,2.65
2022-12-11T03:59:51.358Z,1.75
2022-12-11T04:02:19.511Z,5.00
2022-12-11T04:04:47.234Z,3.67
2022-12-11T04:07:14.786Z,3.28
2022-12-11T04:09:42.277Z,2.00
2022-12-11T04:12:09.953Z,2.63
2022-12-11T04:14:55.816Z,2.78
2022-12-11T04:17:42.090Z,2.88
2022-12-11T04:20:29.884Z,3.35
2022-12-11T04:23:16.222Z,5.55
2022-12-11T04:25:43.923Z,2.03
2022-12-11T04:28:11.658Z,4.18
2022-12-11T04:30:39.437Z,3.25
2022-12-11T04:33:07.232Z,3.25
2022-12-11T04:35:34.967Z,3.67
2022-12-11T04:38:05.634Z,3.15
2022-12-11T04:40:33.366Z,2.97
2022-12-11T04:43:00.914Z,2.20
2022-12-11T04:45:28.476Z,3.13
2022-12-11T04:47:56.156Z,4.22
2022-12-11T04:50:23.889Z,6.68
2022-12-11T04:52:51.705Z,2.97
2022-12-11T04:55:19.649Z,2.90
2022-12-11T04:57:47.311Z,1.55
2022-12-11T05:00:16.210Z,3.40
2022-12-11T05:02:44.145Z,4.60
2022-12-11T05:05:12.103Z,4.25
2022-12-11T05:07:41.033Z,3.38
2022-12-11T05:10:09.385Z,3.75
2022-12-11T05:12:37.162Z,3.45
2022-12-11T05:15:04.874Z,8.88
2022-12-11T05:17:32.632Z,7.22
2022-12-11T05:20:00.237Z,12.60
2022-12-11T05:22:27.922Z,7.60
2022-12-11T05:24:55.657Z,13.68
2022-12-11T05:27:23.299Z,16.27
2022-12-11T05:29:53.653Z,29.88
2022-12-11T05:32:25.612Z,27.05
2022-12-11T05:34:53.061Z,34.22
2022-12-11T05:37:23.125Z,32.00
2022-12-11T05:39:50.948Z,29.70
2022-12-11T05:42:21.746Z,29.27
2022-12-11T05:44:51.964Z,39.42
2022-12-11T05:47:22.051Z,41.88
2022-12-11T05:49:49.717Z,37.35
2022-12-11T05:52:17.464Z,30.98
2022-12-11T05:54:45.129Z,50.40
2022-12-11T05:57:12.760Z,57.67
2022-12-11T05:59:41.277Z,62.30
2022-12-11T06:02:11.534Z,61.92
2022-12-11T06:04:39.174Z,65.07
2022-12-11T06:07:07.151Z,70.85
2022-12-11T06:09:34.843Z,80.85
2022-12-11T06:12:02.566Z,70.35
2022-12-11T06:14:30.268Z,34.88
2022-12-11T06:16:57.923Z,80.93
2022-12-11T06:19:25.499Z,92.32
2022-12-11T06:21:53.053Z,97.10
2022-12-11T06:24:20.707Z,93.50
2022-12-11T06:26:48.415Z,92.00
2022-12-11T06:29:16.331Z,1.38
2022-12-11T06:31:44.016Z,3.25
2022-12-11T06:34:13.773Z,2.15
2022-12-11T06:36:41.641Z,2.55
2022-12-11T06:39:11.422Z,2.50
2022-12-11T06:41:39.196Z,2.15
2022-12-11T06:44:06.918Z,2.67
2022-12-11T06:46:34.652Z,2.17
2022-12-11T06:49:02.332Z,3.13
2022-12-11T06:51:30.271Z,1.85
2022-12-11T06:53:57.920Z,2.45
2022-12-11T06:56:25.964Z,11.18
2022-12-11T06:58:53.658Z,43.42
2022-12-11T07:01:24.716Z,40.55
2022-12-11T07:03:59.764Z,39.33
2022-12-11T07:06:28.524Z,44.78
2022-12-11T07:08:56.204Z,37.58
2022-12-11T07:11:24.286Z,56.47
2022-12-11T07:13:52.306Z,79.35
2022-12-11T07:16:20.175Z,61.67
2022-12-11T07:18:50.542Z,79.75
2022-12-11T07:23:46.776Z,102.03
2022-12-11T07:26:16.695Z,93.45
2022-12-11T07:28:45.242Z,85.40
2022-12-11T07:31:15.901Z,79.53
2022-12-11T07:33:44.052Z,76.82
2022-12-11T07:36:13.658Z,76.47
2022-12-11T07:38:41.499Z,84.05
2022-12-11T07:41:13.192Z,70.88
2022-12-11T07:43:40.974Z,83.72
2022-12-11T07:46:14.759Z,89.03
2022-12-11T07:48:44.230Z,95.00
2022-12-11T07:51:20.284Z,89.97
2022-12-11T07:53:49.691Z,73.40
2022-12-11T07:56:18.472Z,61.80
2022-12-11T07:58:46.508Z,97.57
2022-12-11T08:01:17.971Z,72.30
2022-12-11T08:03:45.679Z,88.72
2022-12-11T08:06:15.625Z,78.18
2022-12-11T08:08:43.389Z,74.63
2022-12-11T08:11:15.508Z,60.92
2022-12-11T08:13:43.768Z,68.53
2022-12-11T08:16:38.145Z,76.43
2022-12-11T08:19:05.692Z,84.47
2022-12-11T08:21:33.393Z,70.25
2022-12-11T08:24:01.119Z,75.18
2022-12-11T08:26:31.461Z,87.88
2022-12-11T08:28:59.319Z,72.85
2022-12-11T08:31:26.720Z,48.10
2022-12-11T08:33:56.324Z,60.72
2022-12-11T08:36:24.067Z,66.43
2022-12-11T08:38:52.212Z,54.78
2022-12-11T08:41:22.463Z,61.55
2022-12-11T08:46:17.759Z,65.40
2022-12-11T08:48:45.587Z,77.63
2022-12-11T08:51:15.499Z,60.88
2022-12-11T08:53:43.622Z,61.30
2022-12-11T08:56:13.657Z,53.75
2022-12-11T08:58:41.381Z,57.42
2022-12-11T09:01:14.059Z,51.05
2022-12-11T09:03:42.152Z,50.58
2022-12-11T09:06:12.606Z,45.47
2022-12-11T09:08:40.561Z,56.20
2022-12-11T09:11:11.204Z,63.25
2022-12-11T09:13:39.297Z,56.75
2022-12-11T09:16:09.713Z,59.72
2022-12-11T09:18:38.216Z,50.30
2022-12-11T09:21:08.255Z,41.63
2022-12-11T09:23:36.144Z,55.25
2022-12-11T09:26:07.340Z,44.72
2022-12-11T09:28:35.009Z,41.35
2022-12-11T09:31:03.317Z,60.90
2022-12-11T09:33:31.057Z,94.50
2022-12-11T09:36:02.872Z,61.15
2022-12-11T09:38:31.458Z,49.60
2022-12-11T09:40:59.366Z,62.90
2022-12-11T09:43:38.806Z,70.68
2022-12-11T09:46:08.117Z,82.57
2022-12-11T09:48:35.802Z,72.55
2022-12-11T09:51:14.957Z,91.40
2022-12-11T09:53:42.492Z,91.18
2022-12-11T09:56:26.504Z,102.88
2022-12-11T09:59:04.390Z,76.03
2022-12-11T10:01:48.261Z,96.32
2022-12-11T10:04:28.094Z,109.07
2022-12-11T10:07:07.815Z,84.78
2022-12-11T10:09:38.624Z,132.48
2022-12-11T10:12:32.397Z,136.50
2022-12-11T10:15:35.272Z,130.00
2022-12-11T10:18:05.089Z,138.30
2022-12-11T10:23:07.586Z,122.68
2022-12-11T10:25:42.962Z,82.60
2022-12-11T10:28:18.830Z,86.40
2022-12-11T10:30:51.813Z,92.70
2022-12-11T10:33:23.167Z,97.88
2022-12-11T10:35:58.426Z,97.60
2022-12-11T10:38:29.121Z,117.68
2022-12-11T10:41:02.698Z,117.80
2022-12-11T10:43:38.355Z,121.60
2022-12-11T10:46:13.432Z,120.70
2022-12-11T10:48:56.204Z,119.43
2022-12-11T10:51:33.987Z,108.97
2022-12-11T10:54:22.277Z,127.60
2022-12-11T10:56:50.398Z,115.70
2022-12-11T10:59:31.287Z,117.55
2022-12-11T11:01:59.334Z,134.43
2022-12-11T11:04:32.458Z,132.38
2022-12-11T11:07:24.984Z,130.15
2022-12-11T11:10:13.830Z,121.55
2022-12-11T11:15:19.612Z,119.68
2022-12-11T11:17:55.684Z,125.97
2022-12-11T11:20:30.483Z,119.57
2022-12-11T11:23:04.852Z,94.95
2022-12-11T11:25:36.436Z,106.63
2022-12-11T11:28:16.056Z,114.65
2022-12-11T11:30:55.425Z,151.15
2022-12-11T11:33:24.168Z,172.85
2022-12-11T11:35:57.557Z,160.02
2022-12-11T11:38:39.110Z,138.25
2022-12-11T11:41:27.297Z,136.65
2022-12-11T11:44:01.238Z,157.52
2022-12-11T11:46:47.270Z,154.02
2022-12-11T11:49:48.602Z,158.48
2022-12-11T11:55:10.093Z,168.80
2022-12-11T11:58:11.075Z,119.30
2022-12-11T12:00:38.910Z,127.32
2022-12-11T12:03:33.246Z,119.32
2022-12-11T12:06:14.901Z,127.78
2022-12-11T12:08:45.864Z,148.52
2022-12-11T12:12:03.836Z,145.75
2022-12-11T12:14:59.627Z,181.25
2022-12-11T12:17:31.623Z,133.93
2022-12-11T12:20:08.583Z,4.07
2022-12-11T12:23:12.443Z,8.15
2022-12-11T12:26:14.472Z,7.10
2022-12-11T12:29:03.919Z,3.08
2022-12-11T12:31:33.783Z,3.78
2022-12-11T12:34:04.471Z,10.02
2022-12-11T12:36:38.879Z,3.60
2022-12-11T12:39:12.466Z,10.35
2022-12-11T12:41:53.653Z,3.67
2022-12-11T12:44:25.769Z,99.53
2022-12-11T12:47:05.959Z,75.43
2022-12-11T12:49:43.358Z,84.68
2022-12-11T12:52:24.346Z,94.70
2022-12-11T12:55:14.903Z,101.82
2022-12-11T12:58:03.456Z,98.00
2022-12-11T13:00:34.239Z,84.00
2022-12-11T13:03:30.428Z,79.85
2022-12-11T13:06:00.327Z,78.72
2022-12-11T13:08:29.274Z,30.80
2022-12-11T13:11:04.714Z,15.90
2022-12-11T13:13:35.409Z,10.10
2022-12-11T13:16:26.327Z,8.40
2022-12-11T13:18:54.331Z,25.27
2022-12-11T13:21:35.596Z,28.70
2022-12-11T13:25:01.732Z,38.60
2022-12-11T13:27:43.949Z,30.15
2022-12-11T13:30:17.644Z,55.75
2022-12-11T13:32:59.435Z,53.55
2022-12-11T13:35:27.310Z,34.40
2022-12-11T13:37:56.771Z,46.20
2022-12-11T13:40:28.144Z,74.72
2022-12-11T13:43:03.277Z,80.53
2022-12-11T13:45:44.869Z,64.80
2022-12-11T13:48:28.462Z,75.28
2022-12-11T13:50:56.839Z,61.42
2022-12-11T13:53:24.717Z,63.05
2022-12-11T13:56:16.984Z,80.80
2022-12-11T13:58:44.898Z,77.07
2022-12-11T14:01:21.991Z,70.43
2022-12-11T14:03:57.057Z,62.25
2022-12-11T14:06:26.625Z,78.20
2022-12-11T14:08:57.502Z,79.72
2022-12-11T14:11:44.817Z,85.43
2022-12-11T14:14:31.067Z,96.63
2022-12-11T14:16:59.456Z,89.50
2022-12-11T14:19:27.323Z,104.53
2022-12-11T14:22:02.735Z,102.38
2022-12-11T14:24:31.259Z,118.32
2022-12-11T14:26:59.286Z,140.50
2022-12-11T14:29:34.336Z,107.25
2022-12-11T14:32:03.945Z,126.80
2022-12-11T14:34:45.328Z,116.40
2022-12-11T14:37:15.502Z,98.47
2022-12-11T14:40:10.377Z,97.95
2022-12-11T14:42:43.746Z,92.22
2022-12-11T14:45:32.910Z,104.40
2022-12-11T14:48:01.150Z,125.10
2022-12-11T14:50:38.285Z,119.22
2022-12-11T14:53:19.839Z,140.32
2022-12-11T14:55:49.510Z,142.23
2022-12-11T14:58:20.396Z,136.68
2022-12-11T15:00:59.829Z,111.32
2022-12-11T15:03:35.122Z,127.53
2022-12-11T15:06:03.670Z,122.45
2022-12-11T15:08:34.283Z,139.15
2022-12-11T15:11:01.873Z,137.02
2022-12-11T15:13:29.603Z,127.70
2022-12-11T15:15:57.909Z,142.57
2022-12-11T15:18:34.137Z,168.02
2022-12-11T15:21:03.708Z,167.57
2022-12-11T15:23:31.719Z,158.82
2022-12-11T15:26:02.113Z,147.35
2022-12-11T15:28:35.792Z,146.60
2022-12-11T15:31:08.865Z,161.10
2022-12-11T15:33:47.819Z,179.75
2022-12-11T15:36:34.849Z,152.55
2022-12-11T15:39:03.044Z,189.65
2022-12-11T15:41:33.610Z,139.75
2022-12-11T15:44:03.254Z,126.38
2022-12-11T15:46:35.646Z,131.73
2022-12-11T15:49:03.338Z,137.00
2022-12-11T15:51:31.240Z,121.78
2022-12-11T15:53:58.938Z,142.18
2022-12-11T15:56:26.989Z,136.25
2022-12-11T15:58:54.718Z,155.15
2022-12-11T16:01:22.842Z,124.28
2022-12-11T16:03:50.543Z,122.75
2022-12-11T16:06:18.303Z,126.75
2022-12-11T16:08:46.247Z,136.18
2022-12-11T16:11:14.624Z,149.43
2022-12-11T16:13:42.598Z,156.43
2022-12-11T16:16:10.963Z,125.07
2022-12-11T16:18:39.645Z,169.02
2022-12-11T16:21:07.363Z,157.35
2022-12-11T16:23:35.189Z,160.27
2022-12-11T16:26:07.062Z,149.40
2022-12-11T16:28:34.834Z,149.25
2022-12-11T16:31:02.679Z,151.88
2022-12-11T16:33:30.377Z,174.63
2022-12-11T16:35:59.352Z,184.82
2022-12-11T16:38:26.968Z,139.07
2022-12-11T16:41:04.479Z,124.45
2022-12-11T16:43:33.289Z,126.85
2022-12-11T16:46:01.168Z,167.68
2022-12-11T16:48:28.976Z,168.20
2022-12-11T16:50:57.259Z,179.18
2022-12-11T16:53:25.293Z,187.35
2022-12-11T16:55:53.178Z,2.13
2022-12-11T16:58:21.486Z,150.32
2022-12-11T17:00:49.496Z,185.88
2022-12-11T17:03:17.440Z,127.10
2022-12-11T17:05:45.160Z,115.65
2022-12-11T17:08:13.024Z,145.85
2022-12-11T17:10:41.947Z,165.48
2022-12-11T17:13:09.688Z,9.82
2022-12-11T17:15:41.617Z,104.05
2022-12-11T17:18:10.098Z,4.03
2022-12-11T17:20:43.926Z,2.92
2022-12-11T17:23:13.531Z,4.00
2022-12-11T17:25:42.680Z,2.42
2022-12-11T17:28:10.505Z,4.18
2022-12-11T17:30:42.219Z,2.63
2022-12-11T17:33:12.691Z,2.17
2022-12-11T17:35:40.494Z,2.90
2022-12-11T17:38:10.065Z,2.00
2022-12-11T17:40:44.109Z,2.67
2022-12-11T17:43:12.578Z,3.65
2022-12-11T17:45:48.114Z,2.45
2022-12-11T17:48:16.044Z,3.15
2022-12-11T17:50:46.713Z,3.58
2022-12-11T17:53:16.035Z,2.65
2022-12-11T17:55:45.274Z,2.20
2022-12-11T17:58:19.130Z,1.77
2022-12-11T18:00:48.487Z,3.58
2022-12-11T18:03:16.221Z,2.55
2022-12-11T18:05:44.374Z,2.65
2022-12-11T18:08:20.762Z,2.17
2022-12-11T18:13:16.269Z,2.38
2022-12-11T18:15:44.158Z,2.20
2022-12-11T18:18:12.693Z,2.10
2022-12-11T18:20:40.463Z,2.08
2022-12-11T18:23:08.312Z,2.22
2022-12-11T18:25:35.981Z,4.20
2022-12-11T18:28:03.899Z,3.17
2022-12-11T18:30:31.596Z,2.88
2022-12-11T18:32:59.719Z,2.45
2022-12-11T18:35:30.691Z,1.98
2022-12-11T18:37:58.660Z,2.00
2022-12-11T18:40:26.420Z,2.72
2022-12-11T18:42:54.237Z,2.67
2022-12-11T18:45:22.562Z,1.52
2022-12-11T18:47:52.176Z,3.05
2022-12-11T18:50:21.199Z,1.83
2022-12-11T18:52:49.132Z,2.45
2022-12-11T18:55:16.889Z,2.33
2022-12-11T18:57:44.520Z,3.03
2022-12-11T19:00:13.685Z,2.25
2022-12-11T19:02:41.348Z,1.50
2022-12-11T19:05:09.619Z,2.53
2022-12-11T19:07:37.748Z,2.42
2022-12-11T19:10:05.764Z,2.95
2022-12-11T19:12:33.470Z,2.90
2022-12-11T19:15:01.369Z,1.77
2022-12-11T19:17:29.963Z,1.58
2022-12-11T19:19:57.841Z,2.03
2022-12-11T19:22:25.522Z,3.75
2022-12-11T19:24:53.374Z,1.75
2022-12-11T19:27:21.436Z,3.28
2022-12-11T19:29:49.261Z,3.50
2022-12-11T19:32:17.001Z,2.20
2022-12-11T19:34:44.754Z,2.10
2022-12-11T19:37:12.632Z,1.95
2022-12-11T19:39:40.910Z,1.63
2022-12-11T19:42:08.641Z,2.35
2022-12-11T19:44:36.463Z,1.80
2022-12-11T19:47:04.226Z,2.22
2022-12-11T19:49:32.067Z,3.35
2022-12-11T19:51:59.995Z,2.15
2022-12-11T19:54:27.806Z,2.60
2022-12-11T19:56:55.494Z,2.05
2022-12-11T19:59:23.223Z,2.85
2022-12-11T20:01:50.981Z,2.03
2022-12-11T20:04:20.288Z,1.08
2022-12-11T20:06:48.461Z,1.98
2022-12-11T20:09:16.896Z,1.80
2022-12-11T20:11:45.672Z,4.13
2022-12-11T20:14:23.732Z,3.53
2022-12-11T20:17:10.105Z,3.53
2022-12-11T20:19:40.559Z,3.92
2022-12-11T20:22:09.294Z,2.35
2022-12-11T20:24:37.016Z,3.28
2022-12-11T20:27:04.994Z,2.33
2022-12-11T20:29:32.829Z,1.90
2022-12-11T20:32:00.659Z,1.45
2022-12-11T20:34:28.416Z,2.38
2022-12-11T20:36:56.459Z,2.67
2022-12-11T20:39:24.175Z,1.38
2022-12-11T20:41:52.013Z,1.45
2022-12-11T20:44:20.207Z,1.58
2022-12-11T20:46:48.054Z,1.00
2022-12-11T20:49:15.761Z,2.08
2022-12-11T20:51:44.046Z,1.63
2022-12-11T20:54:11.906Z,0.70
2022-12-11T20:56:39.895Z,1.55
2022-12-11T20:59:07.658Z,2.58
2022-12-11T21:01:35.534Z,1.90
2022-12-11T21:04:03.439Z,1.40
2022-12-11T21:06:35.568Z,1.88
2022-12-11T21:09:11.583Z,1.85
2022-12-11T21:11:39.421Z,2.08
2022-12-11T21:14:07.325Z,1.52
2022-12-11T21:16:39.494Z,1.67
2022-12-11T21:19:10.199Z,1.73
2022-12-11T21:21:40.236Z,2.00
2022-12-11T21:24:08.207Z,1.58
2022-12-11T21:26:36.615Z,3.45
2022-12-11T21:29:04.382Z,1.83
2022-12-11T21:31:31.937Z,2.55
2022-12-11T21:34:00.298Z,1.17
2022-12-11T21:36:28.039Z,2.53
2022-12-11T21:38:55.650Z,1.95
2022-12-11T21:41:24.948Z,1.05
2022-12-11T21:46:42.350Z,1.67
2022-12-11T21:49:10.152Z,1.17
2022-12-11T21:51:46.886Z,1.95
2022-12-11T21:54:18.525Z,2.50
2022-12-11T21:56:46.453Z,1.70
2022-12-11T21:59:14.798Z,2.20
2022-12-11T22:01:43.974Z,1.55
2022-12-11T22:04:13.499Z,1.45
2022-12-11T22:06:43.491Z,1.67
2022-12-11T22:09:13.098Z,2.05
2022-12-11T22:11:42.141Z,1.45
2022-12-11T22:14:11.897Z,2.67
2022-12-11T22:16:39.572Z,1.77
2022-12-11T22:19:07.983Z,2.17
2022-12-11T22:21:35.610Z,2.08
2022-12-11T22:24:03.398Z,2.72
2022-12-11T22:26:31.104Z,1.17
2022-12-11T22:28:58.750Z,2.15
2022-12-11T22:31:27.934Z,1.40
2022-12-11T22:33:56.280Z,1.73
2022-12-11T22:36:25.357Z,1.58
2022-12-11T22:38:53.460Z,4.35
2022-12-11T22:41:30.070Z,1.52
2022-12-11T22:43:58.819Z,3.10
2022-12-11T22:46:29.471Z,2.20
2022-12-11T22:48:57.296Z,1.00
2022-12-11T22:51:25.050Z,2.83
2022-12-11T22:53:52.790Z,1.40
2022-12-11T22:56:20.498Z,1.50
2022-12-11T22:58:48.203Z,0.63
2022-12-11T23:01:17.584Z,1.65
2022-12-11T23:03:45.456Z,1.33
2022-12-11T23:06:15.973Z,1.45
2022-12-11T23:08:44.147Z,1.45
2022-12-11T23:11:16.401Z,1.88
2022-12-11T23:13:44.083Z,1.38
2022-12-11T23:16:12.129Z,1.30
2022-12-11T23:18:40.838Z,1.58
2022-12-11T23:21:08.653Z,2.83
2022-12-11T23:23:36.689Z,1.25
2022-12-11T23:26:04.989Z,2.20
2022-12-11T23:28:32.760Z,1.48
2022-12-11T23:31:00.705Z,1.13
2022-12-11T23:33:28.438Z,2.15
2022-12-11T23:35:56.142Z,1.10
2022-12-11T23:38:24.548Z,1.23
2022-12-11T23:40:52.292Z,2.22
2022-12-11T23:43:20.199Z,1.38
2022-12-11T23:45:47.917Z,1.48
2022-12-11T23:48:15.762Z,0.90
2022-12-11T23:50:43.802Z,1.05
2022-12-11T23:53:11.884Z,1.58
2022-12-11T23:55:42.023Z,1.35
2022-12-11T23:58:10.939Z,1.45
